sensor_id;sensor_type;location;lat;lon;timestamp;pressure;altitude;pressure_sealevel;temperature;humidity
22333;BME280;11334;36.986;-121.936;2023-02-23T00:01:29;100548.97;;;11.71;41.27
22333;BME280;11334;36.986;-121.936;2023-02-23T00:03:57;100517.47;;;11.61;41.88
22333;BME280;11334;36.986;-121.936;2023-02-23T00:06:26;100557.59;;;11.81;42.23
22333;BME280;11334;36.986;-121.936;2023-02-23T00:08:53;100554.47;;;11.62;41.03
22333;BME280;11334;36.986;-121.936;2023-02-23T00:11:20;100551.31;;;11.67;41.46
22333;BME280;11334;36.986;-121.936;2023-02-23T00:13:48;100549.66;;;11.50;41.07
22333;BME280;11334;36.986;-121.936;2023-02-23T00:16:17;100554.97;;;11.50;40.73
22333;BME280;11334;36.986;-121.936;2023-02-23T00:18:46;100553.81;;;11.52;42.20
22333;BME280;11334;36.986;-121.936;2023-02-23T00:21:26;100545.00;;;11.60;41.90
22333;BME280;11334;36.986;-121.936;2023-02-23T00:24:02;100543.34;;;11.59;40.70
22333;BME280;11334;36.986;-121.936;2023-02-23T00:26:31;100550.50;;;11.50;41.31
22333;BME280;11334;36.986;-121.936;2023-02-23T00:29:09;100539.50;;;11.61;41.04
22333;BME280;11334;36.986;-121.936;2023-02-23T00:31:36;100549.16;;;11.54;40.53
22333;BME280;11334;36.986;-121.936;2023-02-23T00:34:04;100542.34;;;11.44;40.09
22333;BME280;11334;36.986;-121.936;2023-02-23T00:36:34;100547.31;;;11.70;40.26
22333;BME280;11334;36.986;-121.936;2023-02-23T00:39:09;100539.00;;;11.73;40.37
22333;BME280;11334;36.986;-121.936;2023-02-23T00:41:52;100539.03;;;11.66;38.47
22333;BME280;11334;36.986;-121.936;2023-02-23T00:44:20;100537.00;;;11.75;39.18
22333;BME280;11334;36.986;-121.936;2023-02-23T00:46:48;100540.66;;;11.82;38.93
22333;BME280;11334;36.986;-121.936;2023-02-23T00:49:16;100550.56;;;11.88;39.62
22333;BME280;11334;36.986;-121.936;2023-02-23T00:51:43;100555.56;;;11.83;42.15
22333;BME280;11334;36.986;-121.936;2023-02-23T00:54:11;100556.94;;;11.64;48.65
22333;BME280;11334;36.986;-121.936;2023-02-23T00:56:39;100549.81;;;11.56;51.09
22333;BME280;11334;36.986;-121.936;2023-02-23T00:59:06;100562.09;;;11.49;52.34
22333;BME280;11334;36.986;-121.936;2023-02-23T01:01:32;100558.09;;;11.37;52.91
22333;BME280;11334;36.986;-121.936;2023-02-23T01:04:00;100565.59;;;11.50;53.39
22333;BME280;11334;36.986;-121.936;2023-02-23T01:06:27;100559.28;;;11.51;53.42
22333;BME280;11334;36.986;-121.936;2023-02-23T01:08:54;100563.06;;;11.56;52.84
22333;BME280;11334;36.986;-121.936;2023-02-23T01:11:24;100564.75;;;11.49;53.41
22333;BME280;11334;36.986;-121.936;2023-02-23T01:13:57;100556.94;;;11.56;53.39
22333;BME280;11334;36.986;-121.936;2023-02-23T01:16:27;100563.22;;;11.39;53.85
22333;BME280;11334;36.986;-121.936;2023-02-23T01:18:56;100567.88;;;11.29;52.52
22333;BME280;11334;36.986;-121.936;2023-02-23T01:21:26;100567.84;;;10.98;54.15
22333;BME280;11334;36.986;-121.936;2023-02-23T01:23:53;100582.47;;;11.09;53.57
22333;BME280;11334;36.986;-121.936;2023-02-23T01:26:24;100577.78;;;11.11;53.93
22333;BME280;11334;36.986;-121.936;2023-02-23T01:28:52;100583.06;;;10.88;54.13
22333;BME280;11334;36.986;-121.936;2023-02-23T01:31:19;100597.88;;;10.57;53.11
22333;BME280;11334;36.986;-121.936;2023-02-23T01:33:46;100615.50;;;10.33;55.77
22333;BME280;11334;36.986;-121.936;2023-02-23T01:36:13;100606.44;;;10.10;60.05
22333;BME280;11334;36.986;-121.936;2023-02-23T01:38:39;100604.31;;;10.14;63.92
22333;BME280;11334;36.986;-121.936;2023-02-23T01:41:06;100599.56;;;10.25;64.10
22333;BME280;11334;36.986;-121.936;2023-02-23T01:43:33;100597.78;;;10.34;64.80
22333;BME280;11334;36.986;-121.936;2023-02-23T01:46:02;100592.94;;;10.21;64.50
22333;BME280;11334;36.986;-121.936;2023-02-23T01:48:38;100601.72;;;10.30;62.98
22333;BME280;11334;36.986;-121.936;2023-02-23T01:51:11;100598.75;;;10.33;64.01
22333;BME280;11334;36.986;-121.936;2023-02-23T01:53:54;100590.53;;;10.10;63.57
22333;BME280;11334;36.986;-121.936;2023-02-23T01:56:26;100604.13;;;10.15;64.39
22333;BME280;11334;36.986;-121.936;2023-02-23T01:58:56;100606.66;;;10.25;64.44
22333;BME280;11334;36.986;-121.936;2023-02-23T02:01:24;100609.53;;;10.31;64.07
22333;BME280;11334;36.986;-121.936;2023-02-23T02:04:02;100598.31;;;10.04;66.00
22333;BME280;11334;36.986;-121.936;2023-02-23T02:06:33;100605.09;;;10.07;65.67
22333;BME280;11334;36.986;-121.936;2023-02-23T02:09:07;100598.75;;;10.00;64.92
22333;BME280;11334;36.986;-121.936;2023-02-23T02:11:35;100608.22;;;10.02;65.23
22333;BME280;11334;36.986;-121.936;2023-02-23T02:24:48;100627.81;;;9.92;65.90
22333;BME280;11334;36.986;-121.936;2023-02-23T02:33:40;100616.56;;;9.73;68.63
22333;BME280;11334;36.986;-121.936;2023-02-23T02:44:17;100631.16;;;9.77;65.71
22333;BME280;11334;36.986;-121.936;2023-02-23T02:46:54;100626.84;;;9.76;65.58
22333;BME280;11334;36.986;-121.936;2023-02-23T02:49:24;100629.97;;;9.71;66.23
22333;BME280;11334;36.986;-121.936;2023-02-23T02:54:42;100622.25;;;9.60;66.98
22333;BME280;11334;36.986;-121.936;2023-02-23T02:57:10;100623.94;;;9.61;66.70
22333;BME280;11334;36.986;-121.936;2023-02-23T02:59:45;100628.69;;;9.58;67.11
22333;BME280;11334;36.986;-121.936;2023-02-23T03:02:32;100622.88;;;9.54;68.08
22333;BME280;11334;36.986;-121.936;2023-02-23T03:05:24;100630.97;;;9.53;66.91
22333;BME280;11334;36.986;-121.936;2023-02-23T03:11:16;100632.50;;;9.38;67.54
22333;BME280;11334;36.986;-121.936;2023-02-23T03:17:40;100631.34;;;9.23;67.92
22333;BME280;11334;36.986;-121.936;2023-02-23T03:26:34;100631.78;;;8.84;68.63
22333;BME280;11334;36.986;-121.936;2023-02-23T03:32:51;100641.38;;;8.85;67.46
22333;BME280;11334;36.986;-121.936;2023-02-23T03:36:04;100649.31;;;8.85;67.78
22333;BME280;11334;36.986;-121.936;2023-02-23T03:38:55;100645.00;;;8.58;69.66
22333;BME280;11334;36.986;-121.936;2023-02-23T03:41:43;100645.00;;;8.58;70.07
22333;BME280;11334;36.986;-121.936;2023-02-23T03:44:33;100650.81;;;8.61;69.89
22333;BME280;11334;36.986;-121.936;2023-02-23T03:47:24;100652.50;;;8.62;70.02
22333;BME280;11334;36.986;-121.936;2023-02-23T03:50:27;100654.16;;;8.63;69.14
22333;BME280;11334;36.986;-121.936;2023-02-23T03:53:17;100660.56;;;8.61;69.09
22333;BME280;11334;36.986;-121.936;2023-02-23T03:56:05;100668.34;;;8.62;68.46
22333;BME280;11334;36.986;-121.936;2023-02-23T03:58:57;100666.53;;;8.63;69.01
22333;BME280;11334;36.986;-121.936;2023-02-23T04:01:42;100667.66;;;8.60;68.71
22333;BME280;11334;36.986;-121.936;2023-02-23T04:04:28;100655.13;;;8.36;69.55
22333;BME280;11334;36.986;-121.936;2023-02-23T04:07:15;100668.50;;;8.51;70.31
22333;BME280;11334;36.986;-121.936;2023-02-23T04:10:02;100678.69;;;8.47;70.25
22333;BME280;11334;36.986;-121.936;2023-02-23T04:15:59;100677.22;;;8.61;68.66
22333;BME280;11334;36.986;-121.936;2023-02-23T04:18:29;100661.31;;;8.44;68.73
22333;BME280;11334;36.986;-121.936;2023-02-23T04:20:57;100683.63;;;8.59;68.42
22333;BME280;11334;36.986;-121.936;2023-02-23T04:23:23;100670.34;;;8.51;68.79
22333;BME280;11334;36.986;-121.936;2023-02-23T04:25:51;100684.38;;;8.42;69.68
22333;BME280;11334;36.986;-121.936;2023-02-23T04:28:18;100680.78;;;8.43;69.21
22333;BME280;11334;36.986;-121.936;2023-02-23T04:30:45;100694.22;;;8.50;69.17
22333;BME280;11334;36.986;-121.936;2023-02-23T04:33:11;100694.00;;;8.43;69.62
22333;BME280;11334;36.986;-121.936;2023-02-23T04:35:37;100698.97;;;8.46;70.03
22333;BME280;11334;36.986;-121.936;2023-02-23T04:38:04;100699.09;;;8.45;69.72
22333;BME280;11334;36.986;-121.936;2023-02-23T04:40:30;100687.09;;;8.23;70.32
22333;BME280;11334;36.986;-121.936;2023-02-23T04:42:57;100700.41;;;8.31;70.39
22333;BME280;11334;36.986;-121.936;2023-02-23T04:45:24;100695.97;;;8.32;69.73
22333;BME280;11334;36.986;-121.936;2023-02-23T04:47:51;100698.50;;;8.24;69.98
22333;BME280;11334;36.986;-121.936;2023-02-23T04:50:18;100698.78;;;8.21;69.87
22333;BME280;11334;36.986;-121.936;2023-02-23T04:52:45;100711.56;;;8.16;70.49
22333;BME280;11334;36.986;-121.936;2023-02-23T04:55:17;100699.22;;;8.07;70.17
22333;BME280;11334;36.986;-121.936;2023-02-23T04:57:43;100722.81;;;8.18;69.68
22333;BME280;11334;36.986;-121.936;2023-02-23T05:00:11;100721.84;;;8.19;69.92
22333;BME280;11334;36.986;-121.936;2023-02-23T05:02:37;100721.28;;;8.06;69.88
22333;BME280;11334;36.986;-121.936;2023-02-23T05:05:05;100705.03;;;8.01;69.46
22333;BME280;11334;36.986;-121.936;2023-02-23T05:07:32;100727.00;;;8.11;69.76
22333;BME280;11334;36.986;-121.936;2023-02-23T05:09:58;100719.34;;;7.89;70.26
22333;BME280;11334;36.986;-121.936;2023-02-23T05:12:25;100724.78;;;7.79;71.30
22333;BME280;11334;36.986;-121.936;2023-02-23T05:14:51;100724.91;;;7.87;70.51
22333;BME280;11334;36.986;-121.936;2023-02-23T05:17:17;100715.19;;;7.78;70.49
22333;BME280;11334;36.986;-121.936;2023-02-23T05:19:43;100729.66;;;7.74;70.68
22333;BME280;11334;36.986;-121.936;2023-02-23T05:22:10;100735.47;;;7.68;70.97
22333;BME280;11334;36.986;-121.936;2023-02-23T05:24:38;100732.41;;;7.72;72.53
22333;BME280;11334;36.986;-121.936;2023-02-23T05:27:06;100736.16;;;7.70;72.56
22333;BME280;11334;36.986;-121.936;2023-02-23T05:29:32;100742.66;;;7.66;71.73
22333;BME280;11334;36.986;-121.936;2023-02-23T05:31:59;100736.59;;;7.56;71.60
22333;BME280;11334;36.986;-121.936;2023-02-23T05:34:25;100719.91;;;7.55;71.53
22333;BME280;11334;36.986;-121.936;2023-02-23T05:36:52;100729.22;;;7.59;70.75
22333;BME280;11334;36.986;-121.936;2023-02-23T05:39:19;100740.19;;;7.55;70.30
22333;BME280;11334;36.986;-121.936;2023-02-23T05:41:46;100744.63;;;7.55;71.27
22333;BME280;11334;36.986;-121.936;2023-02-23T05:44:12;100734.78;;;7.47;70.96
22333;BME280;11334;36.986;-121.936;2023-02-23T05:46:38;100740.59;;;7.51;71.21
22333;BME280;11334;36.986;-121.936;2023-02-23T05:49:04;100742.25;;;7.52;71.22
22333;BME280;11334;36.986;-121.936;2023-02-23T05:51:33;100751.69;;;7.45;71.35
22333;BME280;11334;36.986;-121.936;2023-02-23T05:53:59;100748.22;;;7.44;71.89
22333;BME280;11334;36.986;-121.936;2023-02-23T05:56:26;100750.44;;;7.49;72.02
22333;BME280;11334;36.986;-121.936;2023-02-23T05:58:56;100759.47;;;7.46;71.92
22333;BME280;11334;36.986;-121.936;2023-02-23T06:01:24;100745.72;;;7.43;72.14
22333;BME280;11334;36.986;-121.936;2023-02-23T06:03:50;100757.50;;;7.48;72.11
22333;BME280;11334;36.986;-121.936;2023-02-23T06:06:17;100754.75;;;7.50;71.77
22333;BME280;11334;36.986;-121.936;2023-02-23T06:08:44;100742.94;;;7.35;72.07
22333;BME280;11334;36.986;-121.936;2023-02-23T06:11:10;100759.19;;;7.49;72.21
22333;BME280;11334;36.986;-121.936;2023-02-23T06:13:36;100750.03;;;7.44;72.37
22333;BME280;11334;36.986;-121.936;2023-02-23T06:16:03;100762.78;;;7.48;71.90
22333;BME280;11334;36.986;-121.936;2023-02-23T06:18:29;100763.47;;;7.50;72.08
22333;BME280;11334;36.986;-121.936;2023-02-23T06:20:58;100758.91;;;7.52;72.24
22333;BME280;11334;36.986;-121.936;2023-02-23T06:23:26;100761.81;;;7.58;72.47
22333;BME280;11334;36.986;-121.936;2023-02-23T06:25:53;100755.44;;;7.61;72.87
22333;BME280;11334;36.986;-121.936;2023-02-23T06:28:19;100742.81;;;7.55;72.02
22333;BME280;11334;36.986;-121.936;2023-02-23T06:30:45;100751.25;;;7.58;72.32
22333;BME280;11334;36.986;-121.936;2023-02-23T06:33:12;100750.31;;;7.59;72.55
22333;BME280;11334;36.986;-121.936;2023-02-23T06:35:38;100754.88;;;7.57;73.37
22333;BME280;11334;36.986;-121.936;2023-02-23T06:38:04;100757.06;;;7.43;73.33
22333;BME280;11334;36.986;-121.936;2023-02-23T06:40:31;100757.50;;;7.48;72.93
22333;BME280;11334;36.986;-121.936;2023-02-23T06:42:58;100758.78;;;7.54;72.77
22333;BME280;11334;36.986;-121.936;2023-02-23T06:45:25;100755.44;;;7.52;72.30
22333;BME280;11334;36.986;-121.936;2023-02-23T06:47:51;100751.13;;;7.51;72.59
22333;BME280;11334;36.986;-121.936;2023-02-23T06:50:18;100755.16;;;7.45;73.22
22333;BME280;11334;36.986;-121.936;2023-02-23T06:52:44;100747.94;;;7.38;73.15
22333;BME280;11334;36.986;-121.936;2023-02-23T06:55:11;100759.44;;;7.37;73.23
22333;BME280;11334;36.986;-121.936;2023-02-23T06:57:40;100756.53;;;7.40;73.62
22333;BME280;11334;36.986;-121.936;2023-02-23T07:00:07;100758.16;;;7.22;73.45
22333;BME280;11334;36.986;-121.936;2023-02-23T07:02:34;100761.66;;;7.32;74.17
22333;BME280;11334;36.986;-121.936;2023-02-23T07:05:04;100770.38;;;7.32;73.81
22333;BME280;11334;36.986;-121.936;2023-02-23T07:07:31;100757.34;;;7.22;73.04
22333;BME280;11334;36.986;-121.936;2023-02-23T07:10:00;100761.19;;;7.18;73.74
22333;BME280;11334;36.986;-121.936;2023-02-23T07:12:26;100770.44;;;7.03;75.30
22333;BME280;11334;36.986;-121.936;2023-02-23T07:14:52;100747.16;;;6.98;74.93
22333;BME280;11334;36.986;-121.936;2023-02-23T07:17:18;100764.78;;;7.07;74.59
22333;BME280;11334;36.986;-121.936;2023-02-23T07:19:45;100760.69;;;6.94;74.74
22333;BME280;11334;36.986;-121.936;2023-02-23T07:22:11;100760.47;;;6.97;74.29
22333;BME280;11334;36.986;-121.936;2023-02-23T07:24:37;100755.31;;;6.95;74.35
22333;BME280;11334;36.986;-121.936;2023-02-23T07:27:04;100757.41;;;6.92;74.29
22333;BME280;11334;36.986;-121.936;2023-02-23T07:29:30;100761.81;;;6.92;75.19
22333;BME280;11334;36.986;-121.936;2023-02-23T07:31:56;100759.06;;;6.93;74.27
22333;BME280;11334;36.986;-121.936;2023-02-23T07:34:23;100760.03;;;6.92;74.79
22333;BME280;11334;36.986;-121.936;2023-02-23T07:36:49;100756.69;;;6.90;74.63
22333;BME280;11334;36.986;-121.936;2023-02-23T07:39:15;100762.22;;;6.87;74.16
22333;BME280;11334;36.986;-121.936;2023-02-23T07:41:41;100748.97;;;6.68;75.58
22333;BME280;11334;36.986;-121.936;2023-02-23T07:44:08;100740.66;;;6.63;75.09
22333;BME280;11334;36.986;-121.936;2023-02-23T07:46:34;100765.31;;;6.72;75.54
22333;BME280;11334;36.986;-121.936;2023-02-23T07:49:00;100754.81;;;6.72;75.71
22333;BME280;11334;36.986;-121.936;2023-02-23T07:51:26;100761.25;;;6.59;75.74
22333;BME280;11334;36.986;-121.936;2023-02-23T07:53:53;100769.81;;;6.51;75.86
22333;BME280;11334;36.986;-121.936;2023-02-23T07:56:19;100771.28;;;6.44;76.04
22333;BME280;11334;36.986;-121.936;2023-02-23T07:58:46;100760.50;;;6.47;76.06
22333;BME280;11334;36.986;-121.936;2023-02-23T08:01:12;100760.91;;;6.43;76.38
22333;BME280;11334;36.986;-121.936;2023-02-23T08:03:39;100763.41;;;6.44;76.00
22333;BME280;11334;36.986;-121.936;2023-02-23T08:06:05;100766.75;;;6.46;76.04
22333;BME280;11334;36.986;-121.936;2023-02-23T08:08:32;100767.28;;;6.40;75.65
22333;BME280;11334;36.986;-121.936;2023-02-23T08:11:01;100768.19;;;6.30;75.84
22333;BME280;11334;36.986;-121.936;2023-02-23T08:13:28;100774.91;;;6.23;76.54
22333;BME280;11334;36.986;-121.936;2023-02-23T08:15:56;100774.13;;;6.32;75.87
22333;BME280;11334;36.986;-121.936;2023-02-23T08:18:23;100776.06;;;6.30;75.52
22333;BME280;11334;36.986;-121.936;2023-02-23T08:20:49;100768.41;;;6.27;76.94
22333;BME280;11334;36.986;-121.936;2023-02-23T08:23:15;100771.69;;;6.20;76.27
22333;BME280;11334;36.986;-121.936;2023-02-23T08:25:43;100764.03;;;6.28;76.60
22333;BME280;11334;36.986;-121.936;2023-02-23T08:28:09;100762.69;;;6.13;76.31
22333;BME280;11334;36.986;-121.936;2023-02-23T08:30:35;100765.69;;;6.08;76.62
22333;BME280;11334;36.986;-121.936;2023-02-23T08:33:02;100771.22;;;6.05;76.86
22333;BME280;11334;36.986;-121.936;2023-02-23T08:35:30;100766.97;;;5.94;75.86
22333;BME280;11334;36.986;-121.936;2023-02-23T08:37:57;100773.16;;;5.93;76.41
22333;BME280;11334;36.986;-121.936;2023-02-23T08:40:23;100773.94;;;5.84;76.95
22333;BME280;11334;36.986;-121.936;2023-02-23T08:42:50;100769.91;;;5.69;77.91
22333;BME280;11334;36.986;-121.936;2023-02-23T08:45:19;100772.88;;;5.75;77.82
22333;BME280;11334;36.986;-121.936;2023-02-23T08:47:45;100766.81;;;5.75;77.44
22333;BME280;11334;36.986;-121.936;2023-02-23T08:50:13;100764.31;;;5.63;78.04
22333;BME280;11334;36.986;-121.936;2023-02-23T08:52:39;100749.44;;;5.52;78.43
22333;BME280;11334;36.986;-121.936;2023-02-23T08:55:07;100773.75;;;5.65;78.50
22333;BME280;11334;36.986;-121.936;2023-02-23T08:57:36;100771.72;;;5.68;77.11
22333;BME280;11334;36.986;-121.936;2023-02-23T09:00:04;100770.75;;;5.69;77.78
22333;BME280;11334;36.986;-121.936;2023-02-23T09:02:40;100769.16;;;5.78;77.72
22333;BME280;11334;36.986;-121.936;2023-02-23T09:05:07;100780.91;;;5.74;77.25
22333;BME280;11334;36.986;-121.936;2023-02-23T09:07:33;100776.38;;;5.65;77.19
22333;BME280;11334;36.986;-121.936;2023-02-23T09:09:59;100784.72;;;5.70;76.98
22333;BME280;11334;36.986;-121.936;2023-02-23T09:12:26;100774.44;;;5.67;77.41
22333;BME280;11334;36.986;-121.936;2023-02-23T09:14:52;100779.44;;;5.70;77.11
22333;BME280;11334;36.986;-121.936;2023-02-23T09:17:19;100768.13;;;5.69;76.76
22333;BME280;11334;36.986;-121.936;2023-02-23T09:19:49;100787.13;;;5.62;77.67
22333;BME280;11334;36.986;-121.936;2023-02-23T09:22:15;100769.72;;;5.61;76.83
22333;BME280;11334;36.986;-121.936;2023-02-23T09:24:43;100786.81;;;5.45;78.15
22333;BME280;11334;36.986;-121.936;2023-02-23T09:27:10;100788.94;;;5.51;77.90
22333;BME280;11334;36.986;-121.936;2023-02-23T09:29:39;100789.81;;;5.51;77.05
22333;BME280;11334;36.986;-121.936;2023-02-23T09:32:08;100766.91;;;5.42;77.27
22333;BME280;11334;36.986;-121.936;2023-02-23T09:34:34;100737.75;;;5.14;76.69
22333;BME280;11334;36.986;-121.936;2023-02-23T09:37:04;100793.41;;;5.39;77.47
22333;BME280;11334;36.986;-121.936;2023-02-23T09:39:31;100797.47;;;5.33;78.12
22333;BME280;11334;36.986;-121.936;2023-02-23T09:47:44;100797.91;;;5.48;77.75
22333;BME280;11334;36.986;-121.936;2023-02-23T09:50:23;100800.69;;;5.36;79.28
22333;BME280;11334;36.986;-121.936;2023-02-23T09:52:57;100797.75;;;5.30;79.85
22333;BME280;11334;36.986;-121.936;2023-02-23T09:55:24;100779.97;;;5.22;79.97
22333;BME280;11334;36.986;-121.936;2023-02-23T09:57:53;100794.28;;;5.18;80.21
22333;BME280;11334;36.986;-121.936;2023-02-23T10:00:24;100799.66;;;5.28;80.66
22333;BME280;11334;36.986;-121.936;2023-02-23T10:03:15;100794.75;;;5.34;80.73
22333;BME280;11334;36.986;-121.936;2023-02-23T10:05:51;100805.47;;;5.42;80.62
22333;BME280;11334;36.986;-121.936;2023-02-23T10:11:10;100799.50;;;5.40;81.10
22333;BME280;11334;36.986;-121.936;2023-02-23T10:19:05;100806.69;;;5.80;80.32
22333;BME280;11334;36.986;-121.936;2023-02-23T10:21:39;100802.59;;;5.87;80.36
22333;BME280;11334;36.986;-121.936;2023-02-23T10:24:24;100806.56;;;5.81;80.36
22333;BME280;11334;36.986;-121.936;2023-02-23T10:27:01;100806.56;;;5.81;80.61
22333;BME280;11334;36.986;-121.936;2023-02-23T10:29:44;100781.63;;;5.65;81.33
22333;BME280;11334;36.986;-121.936;2023-02-23T10:32:21;100811.69;;;5.83;81.28
22333;BME280;11334;36.986;-121.936;2023-02-23T10:34:53;100819.03;;;5.99;81.46
22333;BME280;11334;36.986;-121.936;2023-02-23T10:37:22;100808.50;;;5.99;81.64
22333;BME280;11334;36.986;-121.936;2023-02-23T10:39:49;100804.94;;;6.00;82.53
22333;BME280;11334;36.986;-121.936;2023-02-23T10:42:20;100796.63;;;6.05;83.61
22333;BME280;11334;36.986;-121.936;2023-02-23T10:44:48;100800.81;;;6.07;84.59
22333;BME280;11334;36.986;-121.936;2023-02-23T10:47:29;100795.31;;;6.10;84.60
22333;BME280;11334;36.986;-121.936;2023-02-23T10:49:57;100790.75;;;6.12;85.23
22333;BME280;11334;36.986;-121.936;2023-02-23T10:52:41;100794.34;;;6.11;85.80
22333;BME280;11334;36.986;-121.936;2023-02-23T10:55:29;100785.00;;;6.18;86.05
22333;BME280;11334;36.986;-121.936;2023-02-23T10:58:14;100790.09;;;6.20;86.20
22333;BME280;11334;36.986;-121.936;2023-02-23T11:03:41;100780.50;;;6.09;85.39
22333;BME280;11334;36.986;-121.936;2023-02-23T11:06:29;100794.28;;;6.22;85.44
22333;BME280;11334;36.986;-121.936;2023-02-23T11:08:56;100786.56;;;6.10;86.56
22333;BME280;11334;36.986;-121.936;2023-02-23T11:11:25;100794.72;;;6.07;87.63
22333;BME280;11334;36.986;-121.936;2023-02-23T11:13:55;100780.00;;;6.15;87.61
22333;BME280;11334;36.986;-121.936;2023-02-23T11:16:24;100776.13;;;6.19;86.84
22333;BME280;11334;36.986;-121.936;2023-02-23T11:21:36;100765.34;;;6.22;87.18
22333;BME280;11334;36.986;-121.936;2023-02-23T11:24:36;100767.97;;;6.22;87.56
22333;BME280;11334;36.986;-121.936;2023-02-23T11:27:15;100770.50;;;6.24;86.31
22333;BME280;11334;36.986;-121.936;2023-02-23T11:29:45;100766.06;;;6.24;87.02
22333;BME280;11334;36.986;-121.936;2023-02-23T11:32:21;100767.47;;;6.28;86.80
22333;BME280;11334;36.986;-121.936;2023-02-23T11:35:40;100765.13;;;6.25;86.49
22333;BME280;11334;36.986;-121.936;2023-02-23T11:38:24;100766.59;;;6.18;86.26
22333;BME280;11334;36.986;-121.936;2023-02-23T11:41:19;100773.84;;;6.05;87.54
22333;BME280;11334;36.986;-121.936;2023-02-23T11:43:50;100774.28;;;6.10;87.09
22333;BME280;11334;36.986;-121.936;2023-02-23T11:46:18;100767.16;;;6.01;87.88
22333;BME280;11334;36.986;-121.936;2023-02-23T11:51:30;100763.25;;;6.16;87.29
22333;BME280;11334;36.986;-121.936;2023-02-23T11:53:58;100761.63;;;6.04;86.76
22333;BME280;11334;36.986;-121.936;2023-02-23T11:56:26;100764.78;;;5.98;87.97
22333;BME280;11334;36.986;-121.936;2023-02-23T12:01:44;100772.16;;;6.04;87.64
22333;BME280;11334;36.986;-121.936;2023-02-23T12:04:37;100773.63;;;5.97;86.26
22333;BME280;11334;36.986;-121.936;2023-02-23T12:07:31;100771.31;;;5.84;87.87
22333;BME280;11334;36.986;-121.936;2023-02-23T12:16:09;100777.75;;;5.91;87.05
22333;BME280;11334;36.986;-121.936;2023-02-23T12:24:25;100786.75;;;5.97;87.77
22333;BME280;11334;36.986;-121.936;2023-02-23T12:32:26;100793.44;;;6.01;87.55
22333;BME280;11334;36.986;-121.936;2023-02-23T12:40:32;100799.53;;;6.02;87.83
22333;BME280;11334;36.986;-121.936;2023-02-23T12:43:06;100797.34;;;6.07;87.53
22333;BME280;11334;36.986;-121.936;2023-02-23T12:45:48;100789.38;;;5.97;87.34
22333;BME280;11334;36.986;-121.936;2023-02-23T12:48:32;100789.78;;;5.93;87.47
22333;BME280;11334;36.986;-121.936;2023-02-23T12:51:04;100801.59;;;5.98;88.16
22333;BME280;11334;36.986;-121.936;2023-02-23T12:53:40;100796.78;;;6.03;87.15
22333;BME280;11334;36.986;-121.936;2023-02-23T12:56:25;100802.53;;;5.97;87.01
22333;BME280;11334;36.986;-121.936;2023-02-23T12:59:05;100807.22;;;5.94;86.17
22333;BME280;11334;36.986;-121.936;2023-02-23T13:04:38;100813.38;;;5.84;87.26
22333;BME280;11334;36.986;-121.936;2023-02-23T13:07:23;100805.22;;;5.87;87.43
22333;BME280;11334;36.986;-121.936;2023-02-23T13:10:02;100808.19;;;5.93;87.49
22333;BME280;11334;36.986;-121.936;2023-02-23T13:18:40;100809.75;;;5.85;87.05
22333;BME280;11334;36.986;-121.936;2023-02-23T13:24:23;100816.81;;;5.84;88.59
22333;BME280;11334;36.986;-121.936;2023-02-23T13:29:37;100805.84;;;5.79;88.40
22333;BME280;11334;36.986;-121.936;2023-02-23T13:32:11;100823.97;;;5.93;89.15
22333;BME280;11334;36.986;-121.936;2023-02-23T13:34:43;100824.16;;;6.01;88.37
22333;BME280;11334;36.986;-121.936;2023-02-23T13:37:13;100810.09;;;5.91;88.05
22333;BME280;11334;36.986;-121.936;2023-02-23T13:42:39;100836.03;;;6.16;88.11
22333;BME280;11334;36.986;-121.936;2023-02-23T13:50:41;100843.56;;;6.20;87.85
22333;BME280;11334;36.986;-121.936;2023-02-23T13:55:58;100841.31;;;6.16;89.16
22333;BME280;11334;36.986;-121.936;2023-02-23T13:58:30;100838.78;;;6.14;89.22
22333;BME280;11334;36.986;-121.936;2023-02-23T14:01:14;100848.81;;;6.20;89.56
22333;BME280;11334;36.986;-121.936;2023-02-23T14:03:50;100852.72;;;6.26;89.97
22333;BME280;11334;36.986;-121.936;2023-02-23T14:06:19;100857.41;;;6.22;90.00
22333;BME280;11334;36.986;-121.936;2023-02-23T14:11:51;100854.28;;;6.28;91.26
22333;BME280;11334;36.986;-121.936;2023-02-23T14:19:42;100869.66;;;6.32;90.91
22333;BME280;11334;36.986;-121.936;2023-02-23T14:22:15;100858.72;;;6.28;90.92
22333;BME280;11334;36.986;-121.936;2023-02-23T14:24:43;100860.00;;;6.33;91.10
22333;BME280;11334;36.986;-121.936;2023-02-23T14:27:23;100854.72;;;6.33;91.15
22333;BME280;11334;36.986;-121.936;2023-02-23T14:30:12;100867.34;;;6.39;90.80
22333;BME280;11334;36.986;-121.936;2023-02-23T14:32:44;100861.72;;;6.43;91.31
22333;BME280;11334;36.986;-121.936;2023-02-23T14:38:08;100857.34;;;6.53;91.92
22333;BME280;11334;36.986;-121.936;2023-02-23T14:40:40;100860.94;;;6.52;90.98
22333;BME280;11334;36.986;-121.936;2023-02-23T14:46:23;100842.25;;;6.35;90.81
22333;BME280;11334;36.986;-121.936;2023-02-23T14:49:05;100871.59;;;6.71;91.92
22333;BME280;11334;36.986;-121.936;2023-02-23T14:52:07;100870.94;;;6.78;91.02
22333;BME280;11334;36.986;-121.936;2023-02-23T14:54:37;100875.59;;;6.65;90.11
22333;BME280;11334;36.986;-121.936;2023-02-23T14:57:21;100861.00;;;6.61;89.61
22333;BME280;11334;36.986;-121.936;2023-02-23T15:02:37;100872.34;;;6.62;89.22
22333;BME280;11334;36.986;-121.936;2023-02-23T15:05:16;100870.63;;;6.52;89.03
22333;BME280;11334;36.986;-121.936;2023-02-23T15:07:43;100873.25;;;6.52;89.46
22333;BME280;11334;36.986;-121.936;2023-02-23T15:12:59;100865.75;;;6.47;89.63